KFME/FME METAR and TAF weather

Enter ICAO airport designator
Station Type Date Time Source
KFME METAR 2019/06/26 16:03 UTC NOAA

KFME 261603Z AUTO 27007KT 10SM 29/18 A3010 RMK AO1


Station Type Date Time Source
KFME Decoded METAR 2019/06/26 16:03 UTC NOAA

Fort Meade / Tipton, MD, United States (KFME) 39-05N 076-46W
Jun 26, 2019 - 12:03 PM EDT / 2019.06.26 1603 UTC
Wind: from the W (270 degrees) at 8 MPH (7 KT):0
Visibility: 10 mile(s):0
Temperature: 84 F (29 C)
Dew Point: 64 F (18 C)
Relative Humidity: 51%
Pressure (altimeter): 30.1 in. Hg (1019 hPa)
ob: KFME 261603Z AUTO 27007KT 10SM 29/18 A3010 RMK AO1
cycle: 16

Station Type Date Time Source
KFME TAF UTC NOAA

Error!

Example: see airport list